Hyannis, Massachusetts
Current Conditions -  °F | °C
As of 12:56 AM on Thursday 18 Dec 2014 (Local Time) from KHYA Reporting Station
Overcast Overcast  
Wind Chill: 36°   Ceiling: 6500
Heat Index: 42°   Visibility: 10mi
Dew Point: 33°   Wind: 10mph
Humidity: 70%   Direction: 270°W
Pressure: 29.71"   Gusts: NA
Location:  41.65°N, 70.28°W
Report Text: KHYA 180556Z 27009KT 10SM OVC065 06/01 A2971 RMK AO2 SLP062 T00560006 10078 20056 55000
Loading
Personal Weather Stations






























Interactive Weather Map New forecast layout! Learn more

10-Day Weather Forecast

Advertisements
Track Severe Weather on mobile